N12KBM KSNA-KLAX
Flight info
| Callsign | N12KBM |
|---|---|
| Flight time | 0h 16m |
| Altitude | VFR |
| Route | VFR |
| Aircraft | PA28/L-VGD/C |
Departure
| Time | 2026-05-03 20:49 |
|---|---|
| Airport | John Wayne Orange County International Airport (KSNA) |
Arrival
| Time | 2026-05-03 21:05 |
|---|---|
| Airport | Los Angeles International Airport (KLAX) |
| Time | Latitude | Longitude | Altitude | Speed | Heading |
|---|---|---|---|---|---|
| 2026-05-03 20:48 | 33.70162 | -117.92082 | 2451 ft | 109 kts | 316° |
| 2026-05-03 20:49 | 33.70658 | -117.92828 | 2702 ft | 111 kts | 304° |
| 2026-05-03 20:49 | 33.71101 | -117.93497 | 3248 ft | 80 kts | 314° |
| 2026-05-03 20:49 | 33.71536 | -117.93996 | 3500 ft | 92 kts | 314° |
| 2026-05-03 20:49 | 33.72004 | -117.94585 | 3692 ft | 102 kts | 310° |
| 2026-05-03 20:50 | 33.72467 | -117.95252 | 3937 ft | 107 kts | 307° |
| 2026-05-03 20:50 | 33.72929 | -117.96027 | 4038 ft | 121 kts | 303° |
| 2026-05-03 20:50 | 33.73298 | -117.96907 | 4329 ft | 116 kts | 295° |
| 2026-05-03 20:50 | 33.73639 | -117.97738 | 4706 ft | 104 kts | 297° |
| 2026-05-03 20:51 | 33.74039 | -117.98418 | 5004 ft | 103 kts | 306° |
| 2026-05-03 20:51 | 33.74528 | -117.99131 | 5141 ft | 115 kts | 313° |
| 2026-05-03 20:51 | 33.75090 | -117.99713 | 5482 ft | 106 kts | 322° |
| 2026-05-03 20:51 | 33.75710 | -118.00190 | 5738 ft | 105 kts | 328° |
| 2026-05-03 20:52 | 33.76344 | -118.00646 | 5954 ft | 111 kts | 328° |
| 2026-05-03 20:52 | 33.77006 | -118.01162 | 6210 ft | 107 kts | 323° |
| 2026-05-03 20:52 | 33.77634 | -118.01657 | 6414 ft | 110 kts | 334° |
| 2026-05-03 20:52 | 33.78332 | -118.02010 | 6636 ft | 111 kts | 333° |
| 2026-05-03 20:53 | 33.78925 | -118.02422 | 6937 ft | 105 kts | 324° |
| 2026-05-03 20:53 | 33.79535 | -118.02903 | 7078 ft | 102 kts | 325° |
| 2026-05-03 20:53 | 33.80129 | -118.03346 | 7127 ft | 110 kts | 329° |
| 2026-05-03 20:53 | 33.80833 | -118.03829 | 7063 ft | 121 kts | 327° |
| 2026-05-03 20:54 | 33.81525 | -118.04323 | 7238 ft | 110 kts | 329° |
| 2026-05-03 20:54 | 33.82797 | -118.05264 | 7438 ft | 108 kts | 323° |
| 2026-05-03 20:54 | 33.83367 | -118.05802 | 7602 ft | 101 kts | 322° |
| 2026-05-03 20:55 | 33.83905 | -118.06305 | 7697 ft | 104 kts | 321° |
| 2026-05-03 20:55 | 33.84490 | -118.06836 | 7741 ft | 109 kts | 322° |
| 2026-05-03 20:55 | 33.85190 | -118.07445 | 7288 ft | 135 kts | 322° |
| 2026-05-03 20:55 | 33.85926 | -118.08032 | 7147 ft | 120 kts | 326° |
| 2026-05-03 20:56 | 33.86627 | -118.08548 | 7002 ft | 115 kts | 328° |
| 2026-05-03 20:56 | 33.87331 | -118.09049 | 7052 ft | 117 kts | 328° |
| 2026-05-03 20:56 | 33.88003 | -118.09556 | 7198 ft | 111 kts | 326° |
| 2026-05-03 20:56 | 33.88654 | -118.10064 | 7281 ft | 112 kts | 326° |
| 2026-05-03 20:57 | 33.89356 | -118.10531 | 7267 ft | 121 kts | 332° |
| 2026-05-03 20:57 | 33.90147 | -118.10995 | 7178 ft | 129 kts | 335° |
| 2026-05-03 20:57 | 33.90994 | -118.11410 | 7112 ft | 133 kts | 339° |
| 2026-05-03 20:57 | 33.91862 | -118.11797 | 7032 ft | 134 kts | 331° |
| 2026-05-03 20:58 | 33.92668 | -118.12232 | 7153 ft | 124 kts | 337° |
| 2026-05-03 20:58 | 33.93472 | -118.12655 | 6935 ft | 124 kts | 326° |
| 2026-05-03 20:58 | 33.94139 | -118.13208 | 6631 ft | 115 kts | 316° |
| 2026-05-03 20:58 | 33.94563 | -118.14044 | 6156 ft | 120 kts | 285° |
| 2026-05-03 20:59 | 33.94715 | -118.15033 | 5818 ft | 119 kts | 277° |
| 2026-05-03 20:59 | 33.94806 | -118.16015 | 5645 ft | 116 kts | 272° |
| 2026-05-03 20:59 | 33.94747 | -118.16964 | 5519 ft | 111 kts | 266° |
| 2026-05-03 20:59 | 33.94700 | -118.17924 | 5283 ft | 116 kts | 266° |
| 2026-05-03 21:00 | 33.94656 | -118.18901 | 4981 ft | 122 kts | 271° |
| 2026-05-03 21:00 | 33.94635 | -118.19580 | 4786 ft | 122 kts | 260° |
| 2026-05-03 21:00 | 33.94515 | -118.20919 | 4497 ft | 119 kts | 256° |
| 2026-05-03 21:00 | 33.94473 | -118.21917 | 4272 ft | 128 kts | 268° |
| 2026-05-03 21:01 | 33.94506 | -118.23102 | 4140 ft | 145 kts | 276° |
| 2026-05-03 21:01 | 33.94534 | -118.24279 | 4192 ft | 137 kts | 266° |
| 2026-05-03 21:01 | 33.94502 | -118.25396 | 3696 ft | 130 kts | 268° |
| 2026-05-03 21:01 | 33.94469 | -118.26450 | 3297 ft | 123 kts | 267° |
| 2026-05-03 21:02 | 33.94448 | -118.27445 | 2952 ft | 113 kts | 265° |
| 2026-05-03 21:02 | 33.94458 | -118.28340 | 2736 ft | 102 kts | 269° |
| 2026-05-03 21:02 | 33.94420 | -118.29190 | 2448 ft | 102 kts | 266° |
| 2026-05-03 21:02 | 33.94376 | -118.30059 | 2149 ft | 102 kts | 265° |
| 2026-05-03 21:03 | 33.94318 | -118.30873 | 1963 ft | 94 kts | 265° |
| 2026-05-03 21:03 | 33.94267 | -118.31627 | 1853 ft | 89 kts | 265° |
| 2026-05-03 21:03 | 33.94204 | -118.32373 | 1786 ft | 95 kts | 264° |
| 2026-05-03 21:03 | 33.94136 | -118.33199 | 1624 ft | 102 kts | 263° |
| 2026-05-03 21:04 | 33.94086 | -118.34094 | 1419 ft | 111 kts | 265° |
| 2026-05-03 21:04 | 33.94032 | -118.35015 | 1184 ft | 109 kts | 266° |
| 2026-05-03 21:04 | 33.93961 | -118.35921 | 890 ft | 106 kts | 261° |
| 2026-05-03 21:04 | 33.93881 | -118.36737 | 679 ft | 96 kts | 261° |
| 2026-05-03 21:05 | 33.93814 | -118.37461 | 428 ft | 81 kts | 263° |
| 2026-05-03 21:05 | 33.93743 | -118.38122 | 228 ft | 77 kts | 263° |
| 2026-05-03 21:05 | 33.93684 | -118.38716 | 130 ft | 66 kts | 263° |
| 2026-05-03 21:05 | 33.93629 | -118.39202 | 120 ft | 47 kts | 279° |
| 2026-05-03 21:06 | 33.93566 | -118.39372 | 120 ft | 0 kts | 154° |
| 2026-05-03 21:06 | 33.93538 | -118.39371 | 120 ft | 0 kts | 175° |
| 2026-05-03 21:06 | 33.93524 | -118.39374 | 120 ft | 11 kts | 205° |
| 2026-05-03 21:07 | 33.93489 | -118.39488 | 120 ft | 16 kts | 256° |
| 2026-05-03 21:07 | 33.93482 | -118.39610 | 120 ft | 14 kts | 256° |
| 2026-05-03 21:07 | 33.93462 | -118.39720 | 119 ft | 13 kts | 265° |
| 2026-05-03 21:07 | 33.93443 | -118.39809 | 119 ft | 8 kts | 217° |
| 2026-05-03 21:08 | 33.93401 | -118.39819 | 120 ft | 6 kts | 172° |
| 2026-05-03 21:08 | 33.93372 | -118.39825 | 118 ft | 4 kts | 214° |
| 2026-05-03 21:08 | 33.93367 | -118.39808 | 120 ft | 5 kts | 84° |
| 2026-05-03 21:08 | 33.93362 | -118.39801 | 120 ft | 0 kts | 260° |